Time;durP1;ratioP1;P1;durP2;ratioP2;P2;SDS_P1;SDS_P2;PMS_P1;PMS_P2;Temp;Humidity;BMP_temperature;BMP_pressure;BME280_temperature;BME280_humidity;BME280_pressure;Samples;Min_cycle;Max_cycle;Signal;HPM_P1;HPM_P2
2022/11/25 00:00:07;;;;;;;9.03;5.23;;;;;;;7.94;58.76;97376.09;5024184;28;20188;-70
2022/11/25 00:02:33;;;;;;;13.50;6.23;;;;;;;7.96;58.26;97385.44;5034972;28;20206;-71
2022/11/25 00:04:58;;;;;;;9.47;5.13;;;;;;;7.98;58.10;97387.91;5032141;28;20533;-72
2022/11/25 00:07:23;;;;;;;9.63;5.60;;;;;;;7.94;58.24;97387.34;5031831;28;20738;-70
2022/11/25 00:09:49;;;;;;;10.83;5.27;;;;;;;7.87;58.33;97388.00;5030668;28;20597;-69
2022/11/25 00:12:14;;;;;;;10.43;5.60;;;;;;;7.92;58.33;97383.22;5030322;28;20277;-70
2022/11/25 00:14:40;;;;;;;11.83;5.50;;;;;;;7.93;57.42;97377.06;5029801;28;20191;-70
2022/11/25 00:17:05;;;;;;;9.77;5.37;;;;;;;7.82;57.81;97373.53;5030056;28;20262;-71
2022/11/25 00:19:31;;;;;;;7.10;5.00;;;;;;;7.86;57.82;97368.06;5030975;28;20182;-70
2022/11/25 00:21:56;;;;;;;11.17;5.57;;;;;;;7.86;57.96;97368.06;5038875;28;20564;-70
2022/11/25 00:24:21;;;;;;;9.50;5.27;;;;;;;7.79;58.76;97367.78;5032811;28;20606;-69
2022/11/25 00:26:47;;;;;;;10.07;5.47;;;;;;;7.75;58.60;97367.22;5030025;28;20212;-70
2022/11/25 00:29:13;;;;;;;11.43;5.83;;;;;;;7.72;58.39;97370.06;5029259;28;20183;-72
2022/11/25 00:31:39;;;;;;;12.27;5.70;;;;;;;7.79;58.08;97373.00;5031576;28;20796;-70
2022/11/25 00:34:06;;;;;;;10.70;5.63;;;;;;;7.76;58.12;97373.25;5016916;28;20445;-71
2022/11/25 00:36:34;;;;;;;11.93;5.93;;;;;;;7.73;57.87;97374.34;5032362;28;20924;-71
2022/11/25 00:39:11;;;;;;;10.90;5.30;;;;;;;7.73;57.46;97363.91;5033497;28;20414;-72
2022/11/25 00:44:35;;;;;;;8.37;5.57;;;;;;;7.76;57.49;97363.66;5023260;28;20512;-71
2022/11/25 00:47:10;;;;;;;12.30;5.50;;;;;;;7.77;57.52;97370.53;5032245;28;20486;-74
2022/11/25 00:49:37;;;;;;;7.87;5.40;;;;;;;7.78;57.79;97372.19;5026951;28;20429;-70
2022/11/25 00:52:03;;;;;;;14.83;5.40;;;;;;;7.82;57.78;97375.34;5034159;28;20446;-70
2022/11/25 00:54:28;;;;;;;12.83;5.80;;;;;;;7.79;57.69;97376.44;5033805;28;20510;-70
2022/11/25 00:56:54;;;;;;;11.83;5.50;;;;;;;7.85;57.73;97372.47;5030586;28;20926;-71
2022/11/25 00:59:20;;;;;;;11.67;5.63;;;;;;;7.88;57.31;97366.16;5032439;28;20176;-69
2022/11/25 01:01:45;;;;;;;9.87;5.70;;;;;;;7.78;57.44;97372.19;5030514;28;20557;-71
2022/11/25 01:04:11;;;;;;;10.37;5.37;;;;;;;7.78;58.16;97369.56;5028162;28;20195;-72
2022/11/25 01:06:37;;;;;;;12.73;5.40;;;;;;;7.76;58.56;97379.31;5033312;28;20681;-70
2022/11/25 01:09:07;;;;;;;9.73;5.50;;;;;;;7.77;58.55;97386.19;5033881;28;20188;-71
2022/11/25 01:11:32;;;;;;;9.37;5.80;;;;;;;7.80;58.40;97385.94;5036719;28;20520;-71
2022/11/25 01:13:58;;;;;;;11.10;5.10;;;;;;;7.77;58.36;97370.53;5032700;28;20462;-72
2022/11/25 01:16:24;;;;;;;7.70;5.53;;;;;;;7.81;58.39;97377.09;5032125;28;20182;-72
2022/11/25 01:18:50;;;;;;;8.33;4.80;;;;;;;7.84;58.53;97376.84;5028266;28;20237;-72
2022/11/25 01:21:17;;;;;;;8.43;4.93;;;;;;;7.90;58.13;97375.50;5033415;28;20446;-72
2022/11/25 01:23:43;;;;;;;10.40;5.20;;;;;;;7.94;58.47;97370.88;5029327;28;20430;-71
2022/11/25 01:26:11;;;;;;;9.97;5.57;;;;;;;7.99;58.49;97374.75;5010551;28;20427;-70
2022/11/25 01:28:36;;;;;;;8.90;5.40;;;;;;;8.04;58.27;97373.50;5032790;28;20210;-71
2022/11/25 01:31:04;;;;;;;15.40;5.47;;;;;;;8.08;58.31;97367.88;5041509;28;20442;-71
2022/11/25 01:33:33;;;;;;;7.47;3.90;;;;;;;8.18;58.71;97365.31;5038453;28;20203;-71
2022/11/25 01:36:07;;;;;;;12.40;4.50;;;;;;;8.18;59.03;97361.88;5029633;28;20515;-71
2022/11/25 01:38:33;;;;;;;9.13;4.87;;;;;;;8.23;59.45;97368.34;5040078;28;20428;-71
2022/11/25 01:41:00;;;;;;;6.73;4.30;;;;;;;8.10;58.61;97370.38;5006003;28;20441;-71
2022/11/25 01:43:26;;;;;;;7.47;4.57;;;;;;;7.91;58.69;97376.34;5036855;28;20190;-69
2022/11/25 01:46:05;;;;;;;8.40;5.20;;;;;;;7.90;59.37;97366.88;5037490;28;20476;-70
2022/11/25 01:48:38;;;;;;;8.83;4.93;;;;;;;7.98;59.86;97373.09;5033835;28;20462;-71
2022/11/25 01:51:03;;;;;;;9.37;4.53;;;;;;;8.03;59.70;97375.28;5032844;28;20439;-71
2022/11/25 01:53:29;;;;;;;8.57;4.67;;;;;;;8.07;59.80;97376.66;5032664;28;20501;-72
2022/11/25 01:55:59;;;;;;;8.37;4.47;;;;;;;8.13;60.22;97372.69;5031766;28;20184;-71
2022/11/25 01:58:28;;;;;;;9.50;4.97;;;;;;;8.07;60.11;97375.84;5015111;28;20680;-70
2022/11/25 02:00:54;;;;;;;10.10;4.53;;;;;;;8.05;59.99;97365.56;5038840;28;20459;-70
2022/11/25 02:03:28;;;;;;;7.00;4.70;;;;;;;8.10;59.85;97365.97;5032317;28;20427;-71
2022/11/25 02:06:03;;;;;;;8.83;4.70;;;;;;;8.17;60.17;97370.66;5031303;28;20183;-71
2022/11/25 02:08:29;;;;;;;9.80;4.53;;;;;;;8.23;59.40;97368.34;5033652;28;20557;-71
2022/11/25 02:10:56;;;;;;;10.90;5.27;;;;;;;8.15;59.44;97373.41;5032911;28;20525;-71
2022/11/25 02:13:22;;;;;;;8.93;4.57;;;;;;;8.18;59.81;97369.72;5033951;28;20206;-70
2022/11/25 02:15:48;;;;;;;11.30;4.83;;;;;;;8.20;59.02;97386.06;5031457;28;20450;-72
2022/11/25 02:18:14;;;;;;;4.90;4.07;;;;;;;8.12;59.54;97377.09;5031910;28;20423;-70
2022/11/25 02:20:39;;;;;;;8.03;4.40;;;;;;;8.14;59.82;97387.41;5039776;28;20195;-70
2022/11/25 02:23:18;;;;;;;9.30;4.33;;;;;;;8.15;59.51;97379.47;5031835;28;20741;-70
2022/11/25 02:25:45;;;;;;;9.03;4.07;;;;;;;8.13;59.76;97376.16;5026824;28;20524;-70
2022/11/25 02:28:17;;;;;;;7.50;4.13;;;;;;;8.13;59.93;97373.53;5031516;28;20466;-71
2022/11/25 02:30:43;;;;;;;8.23;4.33;;;;;;;8.06;60.20;97364.59;5039219;28;20510;-70
2022/11/25 02:33:09;;;;;;;8.40;4.70;;;;;;;8.05;60.09;97373.38;5038320;28;20564;-70
2022/11/25 02:35:35;;;;;;;8.93;4.73;;;;;;;8.10;60.41;97360.75;5030333;28;20520;-71
2022/11/25 02:38:10;;;;;;;6.17;4.63;;;;;;;8.09;59.74;97356.47;5038567;28;20437;-70
2022/11/25 02:40:58;;;;;;;7.87;4.57;;;;;;;8.14;59.39;97351.69;5028186;28;20441;-70
2022/11/25 02:43:24;;;;;;;10.30;4.27;;;;;;;8.15;59.06;97353.34;5032313;28;21135;-71
2022/11/25 02:46:01;;;;;;;7.20;4.50;;;;;;;8.06;59.45;97358.53;5030610;28;20433;-69
2022/11/25 02:48:28;;;;;;;6.63;5.03;;;;;;;8.02;59.95;97357.97;5029934;28;20470;-70
2022/11/25 02:50:54;;;;;;;5.97;4.40;;;;;;;8.01;59.55;97361.56;5034866;28;20523;-70
2022/11/25 02:53:20;;;;;;;9.73;4.13;;;;;;;7.95;60.38;97362.06;5024357;28;20431;-70
2022/11/25 02:55:45;;;;;;;8.50;4.23;;;;;;;7.98;59.81;97352.22;5038972;28;20190;-70
2022/11/25 02:58:11;;;;;;;5.20;4.27;;;;;;;7.99;60.28;97353.03;5039403;28;20434;-70
2022/11/25 03:00:37;;;;;;;5.73;3.97;;;;;;;8.00;59.79;97352.06;5031578;28;20190;-71
2022/11/25 03:03:02;;;;;;;7.10;4.13;;;;;;;8.03;59.34;97354.41;5030968;28;20934;-71
2022/11/25 03:05:28;;;;;;;8.70;4.33;;;;;;;8.03;59.53;97348.34;5014283;28;20181;-72
2022/11/25 03:07:53;;;;;;;8.00;4.10;;;;;;;7.96;60.32;97345.44;5027005;28;20204;-72
2022/11/25 03:10:19;;;;;;;6.47;3.93;;;;;;;7.98;60.23;97338.31;5031014;28;20183;-71
2022/11/25 03:12:44;;;;;;;8.93;3.87;;;;;;;8.02;60.12;97341.47;5030157;28;20275;-70
2022/11/25 03:15:10;;;;;;;6.13;3.97;;;;;;;8.06;59.84;97348.09;5030347;28;20536;-69
2022/11/25 03:17:36;;;;;;;11.17;4.00;;;;;;;8.07;59.88;97339.31;5031269;28;20271;-70
2022/11/25 03:20:02;;;;;;;12.03;3.80;;;;;;;7.89;59.94;97333.91;5030083;28;20184;-70
2022/11/25 03:22:28;;;;;;;5.80;3.53;;;;;;;7.93;60.14;97340.50;5039532;28;20450;-69
2022/11/25 03:24:53;;;;;;;5.60;4.10;;;;;;;7.94;60.10;97336.94;5032292;28;20453;-71
2022/11/25 03:27:19;;;;;;;10.30;4.20;;;;;;;7.86;60.14;97341.97;5031755;28;20342;-70
2022/11/25 03:29:44;;;;;;;8.00;4.20;;;;;;;7.92;60.58;97336.25;5028044;28;20199;-71
2022/11/25 03:32:10;;;;;;;5.17;3.67;;;;;;;7.95;61.37;97333.34;5031967;28;20220;-70
2022/11/25 03:34:35;;;;;;;5.67;3.97;;;;;;;8.00;61.40;97339.81;5037293;28;20211;-71
2022/11/25 03:37:01;;;;;;;8.90;3.93;;;;;;;7.96;60.43;97342.84;5031275;28;20176;-71
2022/11/25 03:39:26;;;;;;;6.90;4.13;;;;;;;7.80;59.96;97341.56;5039625;28;20183;-70
2022/11/25 03:41:52;;;;;;;7.93;4.20;;;;;;;7.89;60.64;97346.94;5036505;28;20207;-70
2022/11/25 03:44:17;;;;;;;9.60;4.10;;;;;;;7.82;60.85;97342.22;5030441;28;20183;-70
2022/11/25 03:46:42;;;;;;;5.13;3.50;;;;;;;7.64;60.79;97346.44;5030773;28;20190;-69
2022/11/25 03:49:08;;;;;;;8.07;4.20;;;;;;;7.63;61.09;97342.16;5030556;28;20187;-70
2022/11/25 03:51:33;;;;;;;9.60;4.80;;;;;;;7.72;60.81;97338.75;5030128;28;20290;-71
2022/11/25 03:53:59;;;;;;;8.57;4.47;;;;;;;7.72;61.02;97345.78;5028142;28;20199;-69
2022/11/25 03:56:24;;;;;;;5.43;3.90;;;;;;;7.87;61.26;97344.47;5024438;28;20241;-70
2022/11/25 03:58:50;;;;;;;9.50;3.83;;;;;;;7.96;60.18;97342.84;5030903;28;20172;-68
2022/11/25 04:01:15;;;;;;;8.27;4.70;;;;;;;8.06;60.32;97340.25;5030812;28;20221;-70
2022/11/25 04:03:41;;;;;;;6.77;4.57;;;;;;;8.03;60.03;97332.69;5013314;28;20184;-72
2022/11/25 04:06:06;;;;;;;11.13;4.23;;;;;;;8.06;59.49;97335.03;5028590;28;20631;-71
2022/11/25 04:08:32;;;;;;;7.20;4.33;;;;;;;8.05;60.20;97342.06;5030302;28;20282;-70
2022/11/25 04:10:57;;;;;;;12.50;4.43;;;;;;;8.07;59.75;97340.13;5013004;28;20261;-69
2022/11/25 04:13:23;;;;;;;6.37;4.10;;;;;;;7.97;59.80;97334.91;5029826;28;20202;-69
2022/11/25 04:15:49;;;;;;;10.93;4.50;;;;;;;8.04;60.58;97337.81;5030604;28;20550;-70
2022/11/25 04:18:15;;;;;;;7.70;4.53;;;;;;;8.04;60.57;97336.97;5030253;28;20188;-70
2022/11/25 04:20:41;;;;;;;8.53;4.33;;;;;;;7.95;61.21;97330.75;5029059;28;20431;-70
2022/11/25 04:23:07;;;;;;;7.30;4.57;;;;;;;7.93;61.36;97340.50;5032155;28;20518;-70
2022/11/25 04:25:33;;;;;;;6.60;4.60;;;;;;;7.83;60.98;97348.28;5034408;28;20182;-70
2022/11/25 04:27:59;;;;;;;10.37;4.90;;;;;;;7.83;60.83;97337.84;5033980;28;20816;-70
2022/11/25 04:30:24;;;;;;;11.13;5.00;;;;;;;7.85;60.45;97338.56;5034031;28;20415;-69
2022/11/25 04:32:50;;;;;;;11.63;5.37;;;;;;;7.84;60.51;97329.06;5038886;28;20215;-70
2022/11/25 04:35:15;;;;;;;12.60;6.20;;;;;;;7.78;60.10;97334.81;5034536;28;20548;-70
2022/11/25 04:37:41;;;;;;;10.57;5.87;;;;;;;7.74;60.19;97334.25;5046799;28;20183;-70
2022/11/25 04:40:07;;;;;;;9.70;6.20;;;;;;;7.55;61.07;97331.56;5035797;28;20250;-70
2022/11/25 04:42:36;;;;;;;13.70;5.87;;;;;;;7.58;61.64;97326.06;5035305;28;20745;-71
2022/11/25 04:45:11;;;;;;;9.80;5.63;;;;;;;7.65;60.64;97329.81;5033545;28;20770;-70
2022/11/25 04:47:37;;;;;;;11.90;5.40;;;;;;;7.55;60.93;97334.19;5029727;28;20473;-73
2022/11/25 04:50:04;;;;;;;10.10;5.60;;;;;;;7.53;61.32;97336.91;5023536;28;20483;-70
2022/11/25 04:52:30;;;;;;;9.20;6.40;;;;;;;7.50;60.98;97345.81;5015211;28;20614;-70
2022/11/25 04:54:55;;;;;;;9.63;6.77;;;;;;;7.41;61.58;97340.53;5032888;28;20434;-70
2022/11/25 04:57:21;;;;;;;15.90;7.53;;;;;;;7.27;60.83;97337.31;5031735;28;20271;-71
2022/11/25 04:59:47;;;;;;;10.67;7.10;;;;;;;7.23;61.08;97349.78;5041118;28;20211;-70
2022/11/25 05:02:23;;;;;;;17.33;7.90;;;;;;;7.16;61.13;97355.63;5029455;28;20684;-69
2022/11/25 05:04:51;;;;;;;12.20;7.50;;;;;;;7.13;60.95;97359.31;5014526;28;20787;-70
2022/11/25 05:07:18;;;;;;;14.13;7.03;;;;;;;7.27;60.96;97352.94;5040108;28;20555;-71
2022/11/25 05:09:44;;;;;;;8.10;6.30;;;;;;;7.33;60.67;97349.84;5033090;28;20430;-70
2022/11/25 05:12:13;;;;;;;14.40;8.00;;;;;;;7.13;60.98;97348.88;5031165;28;20445;-70
2022/11/25 05:14:38;;;;;;;12.83;7.60;;;;;;;7.17;61.68;97352.91;5032919;28;20423;-70
2022/11/25 05:17:04;;;;;;;12.47;7.17;;;;;;;7.20;60.72;97347.41;5033048;28;20902;-71
2022/11/25 05:19:30;;;;;;;11.50;7.20;;;;;;;7.09;60.74;97342.28;5025717;28;20183;-71
2022/11/25 05:21:55;;;;;;;13.80;7.30;;;;;;;6.96;61.91;97339.03;5032496;28;20454;-70
2022/11/25 05:24:21;;;;;;;10.70;6.50;;;;;;;6.99;61.04;97341.38;5031653;28;20215;-69
2022/11/25 05:26:46;;;;;;;17.43;7.00;;;;;;;6.94;61.40;97346.13;5032663;28;20237;-69
2022/11/25 05:29:12;;;;;;;11.87;6.60;;;;;;;7.05;61.37;97348.72;5014590;28;20187;-70
2022/11/25 05:31:37;;;;;;;9.10;6.07;;;;;;;7.05;60.87;97346.91;5031897;28;20215;-70
2022/11/25 05:34:03;;;;;;;11.40;6.20;;;;;;;7.09;61.13;97347.47;5038126;28;20196;-71
2022/11/25 05:36:28;;;;;;;10.00;6.00;;;;;;;7.15;61.14;97347.00;5031609;28;20591;-70
2022/11/25 05:38:57;;;;;;;10.17;5.30;;;;;;;7.21;60.55;97343.03;5033225;28;20178;-70
2022/11/25 05:41:23;;;;;;;7.73;4.80;;;;;;;7.11;60.39;97348.19;5037239;28;20207;-68
2022/11/25 05:43:49;;;;;;;7.30;5.00;;;;;;;7.18;60.62;97357.13;5029188;28;20418;-69
2022/11/25 05:46:15;;;;;;;11.03;5.77;;;;;;;7.18;60.37;97354.53;5031057;28;20180;-69
2022/11/25 05:48:41;;;;;;;9.93;5.23;;;;;;;7.22;60.24;97361.16;5031441;28;20462;-72
2022/11/25 05:51:08;;;;;;;9.07;5.13;;;;;;;7.22;59.88;97361.16;5028732;28;20442;-71
2022/11/25 05:53:33;;;;;;;7.67;5.23;;;;;;;7.19;60.10;97361.41;5030125;28;20179;-70
2022/11/25 05:56:01;;;;;;;6.00;4.77;;;;;;;7.20;60.10;97376.09;5031718;28;20430;-69
2022/11/25 05:58:28;;;;;;;9.07;5.50;;;;;;;7.14;59.45;97373.16;5032078;28;20418;-71
2022/11/25 06:00:54;;;;;;;9.13;5.97;;;;;;;7.07;59.79;97378.91;5014536;28;20435;-71
2022/11/25 06:03:27;;;;;;;7.57;6.10;;;;;;;7.04;60.39;97378.31;5040338;28;20513;-72
2022/11/25 06:05:58;;;;;;;12.63;5.87;;;;;;;7.05;60.14;97388.63;5031325;28;20469;-70
2022/11/25 06:08:24;;;;;;;13.17;5.80;;;;;;;6.97;61.29;97382.38;5039294;28;21212;-69
2022/11/25 06:10:49;;;;;;;12.57;5.63;;;;;;;7.03;61.35;97387.91;5030150;28;20465;-69
2022/11/25 06:13:15;;;;;;;11.67;5.50;;;;;;;7.06;61.30;97386.81;5031935;28;21006;-70
2022/11/25 06:15:41;;;;;;;9.87;5.27;;;;;;;7.14;61.01;97389.66;5031282;28;20263;-71
2022/11/25 06:18:07;;;;;;;9.43;4.97;;;;;;;7.11;60.72;97389.06;5031724;28;20214;-72
2022/11/25 06:20:33;;;;;;;6.40;4.70;;;;;;;7.05;60.61;97385.19;5029126;28;20466;-71
2022/11/25 06:22:58;;;;;;;11.53;5.33;;;;;;;7.11;60.10;97387.28;5031856;28;20540;-70
2022/11/25 06:25:24;;;;;;;9.20;5.23;;;;;;;7.13;60.20;97392.34;5031204;28;20191;-70
2022/11/25 06:27:50;;;;;;;11.63;6.17;;;;;;;7.15;60.49;97391.31;5030580;28;20199;-70
2022/11/25 06:30:16;;;;;;;8.80;5.43;;;;;;;7.17;61.22;97398.97;5031024;28;20427;-71
2022/11/25 06:32:41;;;;;;;10.00;5.80;;;;;;;7.21;60.49;97398.59;5032151;28;20333;-70
2022/11/25 06:35:07;;;;;;;6.60;5.20;;;;;;;7.21;59.85;97398.59;5031397;28;20670;-73
2022/11/25 06:37:33;;;;;;;25.63;12.27;;;;;;;7.20;59.89;97407.38;5030342;28;20690;-69
2022/11/25 06:39:58;;;;;;;28.10;12.60;;;;;;;7.11;60.24;97408.13;5030580;28;20237;-71
2022/11/25 06:42:24;;;;;;;28.33;12.90;;;;;;;7.06;59.79;97408.50;5038352;28;20574;-71
2022/11/25 06:44:49;;;;;;;27.63;14.57;;;;;;;7.15;59.15;97406.94;5037236;28;20199;-70
2022/11/25 06:47:15;;;;;;;27.10;13.30;;;;;;;7.17;59.95;97412.88;5032525;28;20211;-70
2022/11/25 06:49:40;;;;;;;22.80;11.43;;;;;;;7.25;61.03;97416.59;5038441;28;20188;-71
2022/11/25 06:52:06;;;;;;;20.47;11.90;;;;;;;7.32;61.72;97426.41;5024117;28;20666;-71
2022/11/25 06:54:32;;;;;;;12.93;8.20;;;;;;;7.45;61.15;97421.00;5029639;28;20268;-70
2022/11/25 06:56:57;;;;;;;14.20;6.83;;;;;;;7.53;61.22;97428.19;5030228;28;20497;-71
2022/11/25 06:59:23;;;;;;;16.00;8.87;;;;;;;7.61;61.21;97427.56;5028890;28;21477;-70
2022/11/25 07:01:48;;;;;;;16.93;10.13;;;;;;;7.69;60.40;97420.75;5030158;28;20199;-70
2022/11/25 07:04:14;;;;;;;15.07;9.57;;;;;;;7.79;60.44;97428.63;5025931;28;20183;-70
2022/11/25 07:06:39;;;;;;;11.57;6.97;;;;;;;7.84;59.87;97426.44;5035561;28;20653;-72
2022/11/25 07:09:05;;;;;;;9.70;6.20;;;;;;;7.89;59.00;97430.44;5034560;28;20188;-70
2022/11/25 07:11:33;;;;;;;10.03;6.50;;;;;;;7.93;59.51;97437.06;5029635;28;20282;-70
2022/11/25 07:14:00;;;;;;;12.70;6.00;;;;;;;7.93;59.45;97440.50;5031064;28;20188;-70
2022/11/25 07:16:26;;;;;;;17.13;5.90;;;;;;;7.86;60.24;97446.38;5024044;28;20426;-69
2022/11/25 07:18:52;;;;;;;8.83;5.33;;;;;;;7.88;60.17;97445.28;5026016;28;20785;-70
2022/11/25 07:21:21;;;;;;;10.17;5.97;;;;;;;7.91;59.99;97439.00;5027953;28;20465;-70
2022/11/25 07:23:46;;;;;;;12.10;5.80;;;;;;;7.92;60.04;97438.03;5019298;28;20223;-69
2022/11/25 07:26:13;;;;;;;8.53;4.93;;;;;;;7.85;60.29;97440.34;5009317;28;20433;-70
2022/11/25 07:28:39;;;;;;;7.90;5.00;;;;;;;7.88;61.06;97441.84;5022691;28;20214;-69
2022/11/25 07:31:16;;;;;;;10.43;6.20;;;;;;;7.95;61.35;97440.34;5023328;28;20438;-69
2022/11/25 07:33:42;;;;;;;10.80;5.77;;;;;;;8.00;60.62;97438.19;5029351;28;20196;-70
2022/11/25 07:36:09;;;;;;;9.80;6.00;;;;;;;8.02;61.08;97443.28;4991272;28;20961;-72
2022/11/25 07:38:36;;;;;;;9.90;6.27;;;;;;;8.07;61.13;97448.94;5022213;28;20488;-71
2022/11/25 07:41:04;;;;;;;10.33;6.70;;;;;;;8.05;61.04;97454.31;5028724;28;20553;-69
2022/11/25 07:43:30;;;;;;;11.07;7.13;;;;;;;8.02;60.93;97454.56;5022746;28;20902;-72
2022/11/25 07:45:55;;;;;;;10.10;6.10;;;;;;;8.10;60.96;97452.13;5029368;28;20424;-70
2022/11/25 07:48:21;;;;;;;8.73;5.87;;;;;;;7.97;61.22;97456.72;5026362;28;20215;-70
2022/11/25 07:50:48;;;;;;;10.07;6.20;;;;;;;7.98;61.57;97461.00;5022617;28;20180;-71
2022/11/25 07:53:14;;;;;;;16.80;6.27;;;;;;;7.94;61.61;97467.44;5028411;28;20295;-68
2022/11/25 07:55:40;;;;;;;13.57;6.03;;;;;;;8.02;62.33;97467.63;5026900;28;20525;-70
2022/11/25 07:58:05;;;;;;;12.30;6.00;;;;;;;8.11;61.57;97477.25;5013968;28;20661;-70
2022/11/25 08:00:31;;;;;;;10.63;5.60;;;;;;;8.22;62.01;97480.75;5028412;28;20407;-70
2022/11/25 08:02:56;;;;;;;8.40;5.27;;;;;;;8.30;62.38;97484.38;5020877;28;20204;-71
2022/11/25 08:05:21;;;;;;;10.43;5.90;;;;;;;8.39;62.53;97489.75;5029317;28;20187;-71
2022/11/25 08:07:47;;;;;;;13.10;6.60;;;;;;;8.32;61.90;97484.22;5044360;28;20207;-68
2022/11/25 08:10:12;;;;;;;6.60;5.17;;;;;;;8.38;62.42;97483.72;5030456;28;20742;-70
2022/11/25 08:12:38;;;;;;;8.83;4.73;;;;;;;8.51;62.25;97487.91;4997145;28;20197;-72
2022/11/25 08:15:04;;;;;;;11.43;6.40;;;;;;;8.54;62.48;97487.66;5030457;28;20188;-69
2022/11/25 08:17:29;;;;;;;15.03;7.20;;;;;;;8.50;62.25;97486.25;5004791;28;20187;-69
2022/11/25 08:19:54;;;;;;;9.50;7.37;;;;;;;8.47;61.95;97476.88;5028521;28;20220;-71
2022/11/25 08:22:20;;;;;;;16.40;10.13;;;;;;;8.40;62.02;97468.75;5023602;28;20270;-71
2022/11/25 08:24:45;;;;;;;13.67;8.93;;;;;;;8.36;62.29;97475.19;5029097;28;20180;-73
2022/11/25 08:27:11;;;;;;;13.80;8.10;;;;;;;8.45;62.65;97470.94;5022956;28;20668;-72
2022/11/25 08:29:36;;;;;;;13.83;7.53;;;;;;;8.54;62.38;97477.22;5015083;28;20234;-70
2022/11/25 08:32:02;;;;;;;12.00;6.97;;;;;;;8.65;62.36;97479.72;5016713;28;20284;-71
2022/11/25 08:34:27;;;;;;;11.67;7.70;;;;;;;8.71;62.51;97473.94;5030473;28;20196;-72
2022/11/25 08:36:53;;;;;;;9.03;5.70;;;;;;;8.86;62.57;97471.78;5026418;28;20189;-71
2022/11/25 08:39:19;;;;;;;7.17;4.67;;;;;;;9.01;62.79;97471.41;5024219;28;20184;-72
2022/11/25 08:41:45;;;;;;;7.50;4.20;;;;;;;9.12;62.60;97465.19;5033614;28;20211;-73
2022/11/25 08:44:12;;;;;;;4.20;3.37;;;;;;;9.22;62.14;97471.25;5010061;28;20504;-72
2022/11/25 08:46:38;;;;;;;9.40;3.30;;;;;;;9.32;62.40;97459.03;5026591;28;20657;-71
2022/11/25 08:49:05;;;;;;;9.27;3.90;;;;;;;9.43;62.10;97459.84;5017151;28;20932;-70
2022/11/25 08:51:33;;;;;;;9.53;3.90;;;;;;;9.50;61.84;97463.53;5020228;28;20976;-71
2022/11/25 08:53:59;;;;;;;9.17;3.67;;;;;;;9.61;62.21;97473.84;5027738;28;20415;-72
2022/11/25 08:56:25;;;;;;;4.07;3.00;;;;;;;9.70;61.79;97468.78;5011355;28;20782;-71
2022/11/25 08:58:50;;;;;;;7.53;3.57;;;;;;;9.85;61.07;97475.19;5012276;28;20572;-71
2022/11/25 09:01:18;;;;;;;9.70;4.57;;;;;;;10.04;61.55;97478.75;5024241;28;20921;-71
2022/11/25 09:03:47;;;;;;;7.23;4.00;;;;;;;10.24;61.47;97472.47;5028126;28;20187;-72
2022/11/25 09:06:13;;;;;;;9.47;3.70;;;;;;;10.50;61.36;97478.88;5027752;28;20418;-72
2022/11/25 09:08:40;;;;;;;4.53;3.43;;;;;;;10.73;60.79;97484.56;5014298;28;20450;-71
2022/11/25 09:11:06;;;;;;;6.83;3.03;;;;;;;10.90;59.52;97475.91;5015612;28;20450;-71
2022/11/25 09:13:32;;;;;;;4.43;2.87;;;;;;;11.07;58.84;97483.94;5032823;28;20433;-70
2022/11/25 09:15:57;;;;;;;6.00;2.60;;;;;;;11.05;58.19;97486.69;5033192;28;20422;-70
2022/11/25 09:18:28;;;;;;;6.70;2.93;;;;;;;11.28;57.64;97482.81;5027323;28;20176;-72
2022/11/25 09:20:54;;;;;;;3.67;2.53;;;;;;;11.41;57.65;97485.06;5037980;28;20319;-72
2022/11/25 09:23:19;;;;;;;4.77;2.57;;;;;;;11.47;57.49;97487.09;5033410;28;20928;-73
2022/11/25 09:25:52;;;;;;;4.80;2.73;;;;;;;11.50;57.31;97490.25;5033789;28;20183;-73
2022/11/25 09:28:19;;;;;;;7.90;3.17;;;;;;;11.52;57.47;97493.53;5033044;28;20204;-72
2022/11/25 09:30:44;;;;;;;4.00;2.43;;;;;;;11.57;57.05;97492.28;5031903;28;20793;-72
2022/11/25 09:33:10;;;;;;;10.73;3.47;;;;;;;11.68;60.72;97505.97;5035529;28;20442;-70
2022/11/25 09:35:35;;;;;;;7.90;3.00;;;;;;;11.81;59.06;97500.34;5033263;28;20211;-72
2022/11/25 09:38:01;;;;;;;5.33;3.20;;;;;;;11.79;57.61;97502.28;5037364;28;20175;-72
2022/11/25 09:40:39;;;;;;;8.57;3.40;;;;;;;11.77;57.65;97498.97;5033203;28;20644;-71
2022/11/25 09:49:13;;;;;;;4.70;3.27;;;;;;;11.74;57.93;97501.91;5015034;28;20458;-72
2022/11/25 09:52:02;;;;;;;7.60;3.40;;;;;;;11.74;57.01;97506.34;5029946;28;20442;-70
2022/11/25 09:54:33;;;;;;;5.97;4.17;;;;;;;11.74;57.82;97496.66;5020781;28;20788;-72
2022/11/25 09:57:06;;;;;;;8.10;4.53;;;;;;;11.76;57.92;97513.09;5005510;28;20871;-72
2022/11/25 09:59:38;;;;;;;4.90;3.10;;;;;;;11.76;58.64;97499.97;5012729;28;20423;-71
2022/11/25 10:02:15;;;;;;;6.07;3.60;;;;;;;11.75;58.81;97500.94;5012686;28;20462;-72
2022/11/25 10:04:52;;;;;;;6.17;4.00;;;;;;;11.77;58.99;97501.59;5020758;28;20937;-71
2022/11/25 10:07:23;;;;;;;6.37;4.03;;;;;;;11.83;59.56;97506.25;5017420;28;20481;-71
2022/11/25 10:09:49;;;;;;;9.97;3.63;;;;;;;11.89;59.27;97504.00;5019947;28;20852;-69
2022/11/25 10:12:27;;;;;;;11.30;3.70;;;;;;;11.95;58.67;97513.91;5017851;28;20517;-72
2022/11/25 10:15:00;;;;;;;5.37;3.50;;;;;;;12.04;57.81;97512.16;5011748;28;20242;-72
2022/11/25 10:17:48;;;;;;;4.53;3.00;;;;;;;12.05;57.81;97512.03;5018768;28;20464;-72
2022/11/25 10:20:21;;;;;;;6.80;2.67;;;;;;;12.15;56.97;97514.56;4994963;28;20412;-72
2022/11/25 10:22:50;;;;;;;8.37;3.20;;;;;;;12.29;56.74;97523.66;5022347;28;20457;-71
2022/11/25 10:25:20;;;;;;;4.47;2.50;;;;;;;12.53;56.01;97516.88;5019883;28;20535;-71
2022/11/25 10:27:57;;;;;;;4.07;2.67;;;;;;;12.65;55.68;97506.91;5018877;28;20506;-71
2022/11/25 10:30:33;;;;;;;7.63;2.80;;;;;;;12.78;55.39;97514.34;5016106;28;20440;-72
2022/11/25 10:33:01;;;;;;;7.13;3.73;;;;;;;12.95;55.66;97520.50;5022912;28;20447;-72
2022/11/25 10:35:37;;;;;;;6.63;3.40;;;;;;;13.45;54.97;97505.66;5015645;28;20435;-72
2022/11/25 10:38:07;;;;;;;5.47;2.77;;;;;;;13.98;54.16;97506.16;5021792;28;20426;-72
2022/11/25 10:40:32;;;;;;;6.60;2.70;;;;;;;14.48;53.30;97506.03;5012256;28;20420;-71
2022/11/25 10:43:00;;;;;;;3.93;2.43;;;;;;;14.69;50.93;97502.88;5011539;28;20477;-71
2022/11/25 10:45:30;;;;;;;1.97;1.73;;;;;;;14.73;50.08;97507.63;5011488;28;20695;-72
2022/11/25 10:48:02;;;;;;;11.67;4.40;;;;;;;14.69;49.26;97502.88;5031649;28;20443;-71
2022/11/25 10:50:34;;;;;;;11.30;5.60;;;;;;;14.42;49.58;97507.53;5023695;28;20461;-72
2022/11/25 10:53:07;;;;;;;5.20;2.23;;;;;;;13.97;50.24;97507.97;5026488;28;20484;-70
2022/11/25 10:55:33;;;;;;;6.17;2.13;;;;;;;13.73;50.72;97508.81;5025804;28;20419;-72
2022/11/25 10:58:19;;;;;;;5.27;2.10;;;;;;;13.60;51.47;97504.03;5022155;28;20427;-72
2022/11/25 11:00:44;;;;;;;7.80;3.57;;;;;;;13.63;51.67;97508.16;5022686;28;20435;-71
2022/11/25 11:03:18;;;;;;;9.93;3.80;;;;;;;13.62;51.88;97517.84;5022208;28;20994;-72
2022/11/25 11:05:47;;;;;;;12.40;5.77;;;;;;;13.61;52.21;97524.09;5020122;28;20172;-71
2022/11/25 11:08:17;;;;;;;4.50;2.60;;;;;;;13.55;52.62;97527.41;5039560;28;20462;-70
2022/11/25 11:10:43;;;;;;;4.23;2.23;;;;;;;13.43;53.26;97531.34;5019814;28;20461;-72
2022/11/25 11:13:25;;;;;;;8.70;2.40;;;;;;;13.16;53.44;97528.78;5022566;28;20488;-71
2022/11/25 11:15:52;;;;;;;5.60;3.20;;;;;;;13.08;54.08;97533.22;5030432;28;20888;-71
2022/11/25 11:18:40;;;;;;;4.97;2.50;;;;;;;13.16;54.27;97534.06;5022153;28;20420;-71
2022/11/25 11:21:09;;;;;;;3.60;2.60;;;;;;;13.13;54.06;97538.78;5026017;28;20584;-71
2022/11/25 11:23:51;;;;;;;4.33;2.30;;;;;;;13.01;54.38;97541.72;5022998;28;20890;-72
2022/11/25 11:26:32;;;;;;;11.17;2.97;;;;;;;12.97;54.65;97544.84;5027713;28;20632;-70
2022/11/25 11:29:14;;;;;;;7.10;2.87;;;;;;;12.95;54.47;97538.91;5020236;28;20520;-72
2022/11/25 11:31:44;;;;;;;10.80;4.33;;;;;;;12.95;54.59;97531.84;5026660;28;20436;-71
2022/11/25 11:34:20;;;;;;;5.90;2.70;;;;;;;12.96;54.64;97549.28;5025971;28;20475;-71
2022/11/25 11:36:54;;;;;;;6.37;2.70;;;;;;;12.89;54.74;97556.16;5029232;28;20414;-70
2022/11/25 11:39:39;;;;;;;8.60;3.20;;;;;;;12.92;54.86;97561.09;5029965;28;20787;-71
2022/11/25 11:42:27;;;;;;;6.67;3.60;;;;;;;12.91;55.19;97567.34;5034917;28;20842;-73
2022/11/25 11:45:11;;;;;;;6.00;2.30;;;;;;;12.88;55.10;97575.53;5017186;28;20845;-70
2022/11/25 11:48:08;;;;;;;5.20;2.80;;;;;;;12.86;56.07;97580.13;5023898;28;20557;-71